Time;durP1;ratioP1;P1;durP2;ratioP2;P2;SDS_P1;SDS_P2;PMS_P1;PMS_P2;Temp;Humidity;BMP_temperature;BMP_pressure;BME280_temperature;BME280_humidity;BME280_pressure;Samples;Min_cycle;Max_cycle;Signal;HPM_P1;HPM_P2
2022/07/21 00:01:45;;;;;;;2.95;1.00;;;20.00;99.90;;;;;;4818430;29;20058;-84
2022/07/21 00:04:11;;;;;;;2.67;1.45;;;20.10;99.90;;;;;;4815646;29;20050;-84
2022/07/21 00:06:37;;;;;;;5.18;1.30;;;20.10;99.90;;;;;;4811927;29;20042;-84
2022/07/21 00:09:02;;;;;;;3.58;1.15;;;20.10;99.90;;;;;;4813305;29;20051;-84
2022/07/21 00:11:28;;;;;;;3.25;1.05;;;20.00;99.90;;;;;;4815240;29;20061;-84
2022/07/21 00:13:54;;;;;;;2.10;1.00;;;20.00;99.90;;;;;;4814923;29;20462;-84
2022/07/21 00:16:20;;;;;;;3.65;1.30;;;20.00;99.90;;;;;;4815110;29;20484;-84
2022/07/21 00:18:45;;;;;;;3.90;1.10;;;20.00;99.90;;;;;;4812927;29;20126;-84
2022/07/21 00:21:11;;;;;;;2.53;1.15;;;20.00;99.90;;;;;;4811334;29;20057;-84
2022/07/21 00:23:38;;;;;;;3.03;1.52;;;20.00;99.90;;;;;;4811658;29;20090;-84
2022/07/21 00:26:03;;;;;;;5.55;1.73;;;20.00;99.90;;;;;;4818898;29;20042;-84
2022/07/21 00:28:29;;;;;;;2.20;1.10;;;20.00;99.90;;;;;;4812605;29;20051;-84
2022/07/21 00:30:55;;;;;;;2.58;1.02;;;20.10;99.90;;;;;;4812247;29;20082;-84
2022/07/21 00:33:20;;;;;;;5.50;1.15;;;20.10;99.90;;;;;;4815409;29;20043;-83
2022/07/21 00:35:46;;;;;;;1.95;1.27;;;20.10;99.90;;;;;;4815252;29;20385;-85
2022/07/21 00:38:12;;;;;;;1.52;1.10;;;20.30;99.90;;;;;;4814290;29;20047;-84
2022/07/21 00:40:38;;;;;;;4.32;1.55;;;20.20;99.90;;;;;;4815563;29;20082;-84
2022/07/21 00:43:03;;;;;;;3.10;1.45;;;20.30;99.90;;;;;;4813188;29;20053;-83
2022/07/21 00:45:29;;;;;;;1.98;1.02;;;20.20;99.90;;;;;;4814003;29;20076;-83
2022/07/21 00:47:55;;;;;;;2.90;1.30;;;20.20;99.90;;;;;;4808050;29;20405;-83
2022/07/21 00:50:21;;;;;;;2.70;1.38;;;20.30;99.90;;;;;;4814119;29;20054;-84
2022/07/21 00:52:47;;;;;;;4.47;1.38;;;20.30;99.90;;;;;;4814323;29;20042;-84
2022/07/21 00:55:17;;;;;;;2.58;1.52;;;20.30;99.90;;;;;;4813693;29;20046;-83
2022/07/21 00:57:43;;;;;;;2.58;1.10;;;20.30;99.90;;;;;;4817561;29;20404;-83
2022/07/21 01:00:14;;;;;;;4.35;1.38;;;20.50;99.90;;;;;;4817904;29;20050;-84
2022/07/21 01:02:40;;;;;;;2.90;1.70;;;20.30;99.90;;;;;;4816049;29;20118;-84
2022/07/21 01:05:14;;;;;;;2.20;1.25;;;20.30;99.90;;;;;;4814841;29;20187;-84
2022/07/21 01:07:41;;;;;;;3.38;2.17;;;20.30;99.90;;;;;;4816977;29;20058;-84
2022/07/21 01:10:08;;;;;;;5.45;2.05;;;20.40;99.90;;;;;;4812088;29;20043;-85
2022/07/21 01:12:34;;;;;;;5.53;1.95;;;20.40;99.90;;;;;;4816335;29;20091;-87
2022/07/21 01:15:00;;;;;;;6.10;1.90;;;20.30;99.90;;;;;;4813678;29;20598;-88
2022/07/21 01:17:26;;;;;;;4.20;2.17;;;20.30;99.90;;;;;;4808434;29;20141;-87
2022/07/21 01:19:53;;;;;;;4.55;1.95;;;20.20;99.90;;;;;;4814190;29;20154;-86
2022/07/21 01:22:22;;;;;;;4.95;1.88;;;20.10;99.90;;;;;;4814100;29;20051;-87
2022/07/21 01:24:47;;;;;;;5.63;2.00;;;20.10;99.90;;;;;;4815550;29;20042;-86
2022/07/21 01:27:13;;;;;;;6.05;2.50;;;20.10;99.90;;;;;;4814834;29;20388;-86
2022/07/21 01:29:39;;;;;;;7.50;2.47;;;20.10;99.90;;;;;;4814702;29;20065;-85
2022/07/21 01:32:05;;;;;;;6.55;2.60;;;20.00;99.90;;;;;;4818400;29;20050;-86
2022/07/21 01:34:30;;;;;;;6.53;2.35;;;20.00;99.90;;;;;;4817597;29;20056;-85
2022/07/21 01:36:56;;;;;;;6.82;2.88;;;19.90;99.90;;;;;;4815919;29;20053;-86
2022/07/21 01:42:06;;;;;;;6.18;3.10;;;19.80;99.90;;;;;;4812835;29;20114;-86
2022/07/21 01:44:32;;;;;;;7.60;2.60;;;19.80;99.90;;;;;;4817547;29;20474;-86
2022/07/21 01:46:57;;;;;;;5.68;2.70;;;18.90;99.90;;;;;;4815081;29;20047;-86
2022/07/21 01:49:23;;;;;;;4.13;2.92;;;19.80;99.90;;;;;;4808195;29;20042;-86
2022/07/21 01:51:49;;;;;;;5.50;2.60;;;19.80;99.90;;;;;;4814925;29;20072;-86
2022/07/21 01:54:16;;;;;;;5.35;2.53;;;19.80;99.90;;;;;;4813484;29;20058;-86
2022/07/21 01:56:41;;;;;;;5.55;2.38;;;19.70;99.90;;;;;;4811027;29;20050;-87
2022/07/21 01:59:07;;;;;;;6.30;2.85;;;19.70;99.90;;;;;;4817862;29;20042;-86
2022/07/21 02:01:34;;;;;;;3.55;2.22;;;19.70;99.90;;;;;;4817686;29;20046;-86
2022/07/21 02:04:02;;;;;;;3.67;2.38;;;19.70;99.90;;;;;;4813813;29;20095;-87
2022/07/21 02:06:28;;;;;;;5.00;2.78;;;19.60;99.90;;;;;;4813264;29;20073;-86
2022/07/21 02:08:54;;;;;;;4.97;2.65;;;19.60;99.90;;;;;;4814036;29;20058;-87
2022/07/21 02:11:21;;;;;;;6.35;3.08;;;19.70;99.90;;;;;;4812009;29;20075;-88
2022/07/21 02:13:47;;;;;;;4.70;2.50;;;19.60;99.90;;;;;;4814607;29;20066;-86
2022/07/21 02:16:15;;;;;;;5.30;3.08;;;19.60;99.90;;;;;;4813901;29;20079;-87
2022/07/21 02:18:41;;;;;;;7.93;3.10;;;19.50;99.90;;;;;;4814028;29;20050;-86
2022/07/21 02:21:08;;;;;;;7.82;3.65;;;19.50;99.90;;;;;;4814699;29;20547;-86
2022/07/21 02:23:36;;;;;;;9.05;4.03;;;19.60;99.90;;;;;;4813666;29;20405;-87
2022/07/21 02:26:02;;;;;;;8.38;5.13;;;19.60;99.90;;;;;;4815974;29;20125;-93
2022/07/21 02:28:28;;;;;;;7.80;3.75;;;19.60;99.90;;;;;;4820453;29;20110;-91
2022/07/21 02:30:54;;;;;;;5.22;3.25;;;19.60;99.90;;;;;;4813311;29;20133;-89
2022/07/21 02:33:21;;;;;;;7.45;2.92;;;19.50;99.90;;;;;;4815629;29;20071;-92
2022/07/21 02:35:47;;;;;;;6.35;3.20;;;19.40;99.90;;;;;;4816944;29;20099;-91
2022/07/21 02:38:13;;;;;;;4.97;2.58;;;19.50;99.90;;;;;;4814978;29;20047;-89
2022/07/21 02:40:39;;;;;;;6.65;3.55;;;19.40;99.90;;;;;;4812281;29;20047;-92
2022/07/21 02:43:06;;;;;;;4.45;2.60;;;19.40;99.90;;;;;;4814959;29;20160;-89
2022/07/21 02:45:33;;;;;;;5.20;3.03;;;19.40;99.90;;;;;;4812747;29;20068;-88
2022/07/21 02:48:05;;;;;;;4.57;2.83;;;19.40;99.90;;;;;;4814614;29;20386;-91
2022/07/21 02:50:33;;;;;;;5.43;2.78;;;19.40;99.90;;;;;;4816316;29;20547;-90
2022/07/21 02:53:02;;;;;;;6.32;3.63;;;19.40;99.90;;;;;;4824670;29;20050;-92
2022/07/21 02:55:28;;;;;;;5.68;3.03;;;19.40;99.90;;;;;;4809895;29;20053;-91
2022/07/21 02:58:29;;;;;;;6.75;3.47;;;19.30;99.90;;;;;;4816208;29;20444;-92
2022/07/21 03:01:01;;;;;;;3.78;2.53;;;19.30;99.90;;;;;;4733426;30;20101;-92
2022/07/21 03:03:30;;;;;;;6.43;3.38;;;19.30;99.90;;;;;;4733646;30;20538;-89
2022/07/21 03:05:57;;;;;;;6.00;2.50;;;19.30;99.90;;;;;;4728692;30;20060;-93
2022/07/21 03:08:24;;;;;;;5.63;2.63;;;19.30;99.90;;;;;;4733478;30;20404;-91
2022/07/21 03:10:50;;;;;;;5.90;2.78;;;19.30;99.90;;;;;;4733004;30;20110;-90
2022/07/21 03:13:17;;;;;;;5.85;2.92;;;19.30;99.90;;;;;;4733064;30;20094;-88
2022/07/21 03:15:43;;;;;;;6.32;3.13;;;19.30;99.90;;;;;;4733045;30;20056;-89
2022/07/21 03:18:09;;;;;;;5.95;3.42;;;19.30;99.90;;;;;;4733229;30;20510;-89
2022/07/21 03:20:37;;;;;;;5.57;3.03;;;19.30;99.90;;;;;;4732086;30;20080;-90
2022/07/21 03:23:03;;;;;;;6.22;2.97;;;19.30;99.90;;;;;;4731931;30;20060;-92
2022/07/21 03:25:29;;;;;;;5.30;3.40;;;19.30;99.90;;;;;;4740229;30;20131;-92
2022/07/21 03:27:55;;;;;;;4.95;3.03;;;19.30;99.90;;;;;;4744674;30;20044;-89
2022/07/21 03:30:22;;;;;;;5.18;3.03;;;19.30;99.90;;;;;;4748904;30;20154;-91
2022/07/21 03:32:48;;;;;;;5.32;2.70;;;19.30;99.90;;;;;;4739039;30;20501;-89
2022/07/21 03:35:14;;;;;;;3.85;2.53;;;19.30;99.90;;;;;;4782063;29;20054;-89
2022/07/21 03:37:44;;;;;;;5.20;2.95;;;19.30;99.90;;;;;;4808394;29;20058;-91
2022/07/21 03:40:12;;;;;;;5.15;3.05;;;19.30;99.90;;;;;;4808988;29;20055;-93
2022/07/21 03:42:38;;;;;;;8.10;3.83;;;19.30;99.90;;;;;;4815675;29;20106;-91
2022/07/21 03:45:04;;;;;;;5.57;3.40;;;19.30;99.90;;;;;;4811519;29;20126;-90
2022/07/21 03:47:30;;;;;;;5.25;2.95;;;19.30;99.90;;;;;;4819190;29;20485;-92
2022/07/21 03:49:56;;;;;;;5.00;2.85;;;19.40;99.90;;;;;;4816878;29;20110;-94
2022/07/21 03:52:21;;;;;;;4.70;2.90;;;19.30;99.90;;;;;;4814967;29;20058;-92
2022/07/21 03:54:47;;;;;;;4.30;3.03;;;19.20;99.90;;;;;;4811768;29;20385;-92
2022/07/21 03:57:13;;;;;;;7.28;3.35;;;19.30;99.90;;;;;;4812181;29;20050;-90
2022/07/21 03:59:39;;;;;;;5.25;2.95;;;19.40;99.90;;;;;;4814216;29;20987;-93
2022/07/21 04:02:04;;;;;;;6.10;3.55;;;19.40;99.90;;;;;;4849460;29;20054;-95
2022/07/21 04:04:30;;;;;;;4.90;3.10;;;19.40;99.90;;;;;;4813463;29;20050;-92
2022/07/21 04:06:56;;;;;;;5.88;2.95;;;19.30;99.90;;;;;;4812530;29;20532;-90
2022/07/21 04:09:22;;;;;;;6.05;3.17;;;19.20;99.90;;;;;;4812139;29;20502;-93
2022/07/21 04:11:47;;;;;;;5.20;3.08;;;19.40;99.90;;;;;;4814522;29;20062;-89
2022/07/21 04:14:13;;;;;;;5.13;2.85;;;19.40;99.90;;;;;;4812576;29;20051;-90
2022/07/21 04:16:39;;;;;;;6.57;3.38;;;19.40;99.90;;;;;;4814893;29;20058;-88
2022/07/21 04:19:05;;;;;;;5.10;3.28;;;19.40;99.90;;;;;;4816342;29;20050;-91
2022/07/21 04:21:30;;;;;;;6.32;3.42;;;19.40;99.90;;;;;;4814549;29;20062;-92
2022/07/21 04:23:56;;;;;;;4.93;3.13;;;19.40;99.90;;;;;;4811463;29;20051;-91
2022/07/21 04:26:22;;;;;;;6.63;3.10;;;19.40;99.90;;;;;;4812797;29;20082;-91
2022/07/21 04:28:47;;;;;;;5.13;2.95;;;19.40;99.90;;;;;;4813298;29;20091;-90
2022/07/21 04:31:13;;;;;;;4.97;3.08;;;19.40;99.90;;;;;;4805759;29;20103;-90
2022/07/21 04:33:39;;;;;;;5.53;3.17;;;19.40;99.90;;;;;;4817625;29;20129;-90
2022/07/21 04:36:05;;;;;;;5.97;3.92;;;19.40;99.90;;;;;;4817882;29;20157;-92
2022/07/21 04:38:31;;;;;;;5.85;3.13;;;19.40;99.90;;;;;;4818558;29;20058;-91
2022/07/21 04:40:56;;;;;;;6.35;3.13;;;19.40;99.90;;;;;;4818702;29;20053;-90
2022/07/21 04:43:22;;;;;;;5.43;2.90;;;19.50;99.90;;;;;;4818300;29;20051;-92
2022/07/21 04:45:48;;;;;;;4.40;2.67;;;19.40;99.90;;;;;;4817180;29;20098;-91
2022/07/21 04:48:13;;;;;;;6.32;2.78;;;19.50;99.90;;;;;;4819232;29;20461;-91
2022/07/21 04:50:39;;;;;;;5.95;3.15;;;19.50;99.90;;;;;;4824996;29;20061;-92
2022/07/21 04:53:05;;;;;;;6.05;3.72;;;19.50;99.90;;;;;;4817500;29;20092;-90
2022/07/21 04:55:30;;;;;;;4.63;3.58;;;19.50;99.90;;;;;;4813199;29;20111;-93
2022/07/21 04:57:58;;;;;;;6.40;3.40;;;19.50;99.90;;;;;;4816572;29;20211;-94
2022/07/21 05:00:25;;;;;;;4.75;3.30;;;19.50;99.90;;;;;;4816591;29;20051;-93
2022/07/21 05:02:52;;;;;;;6.53;3.75;;;19.50;99.90;;;;;;4816937;29;20047;-91
2022/07/21 05:05:18;;;;;;;6.85;4.07;;;19.60;99.90;;;;;;4821351;29;20057;-90
2022/07/21 05:07:43;;;;;;;8.05;4.75;;;19.60;99.90;;;;;;4816983;29;20050;-92
2022/07/21 05:10:12;;;;;;;5.97;3.90;;;19.60;99.90;;;;;;4816372;29;20591;-91
2022/07/21 05:12:38;;;;;;;5.95;3.03;;;19.70;99.90;;;;;;4814966;29;20096;-92
2022/07/21 05:15:06;;;;;;;6.47;4.50;;;19.70;99.90;;;;;;4815935;29;20088;-90
2022/07/21 05:17:32;;;;;;;8.15;5.25;;;19.80;99.90;;;;;;4811533;29;20074;-93
2022/07/21 05:19:59;;;;;;;6.82;4.20;;;19.90;99.90;;;;;;4817263;29;20512;-92
2022/07/21 05:22:25;;;;;;;6.43;4.93;;;19.90;99.90;;;;;;4817666;29;20050;-93
2022/07/21 05:24:51;;;;;;;8.57;6.32;;;19.90;99.90;;;;;;4822507;29;20102;-91
2022/07/21 05:27:16;;;;;;;12.43;7.38;;;19.90;99.90;;;;;;4824244;29;20046;-92
2022/07/21 05:33:42;;;;;;;11.18;6.80;;;20.00;99.90;;;;;;4812390;29;20068;-91
2022/07/21 05:36:07;;;;;;;8.52;4.95;;;20.10;99.90;;;;;;4816211;29;20042;-89
2022/07/21 05:38:33;;;;;;;8.30;5.47;;;20.10;99.90;;;;;;4812758;29;20401;-91
2022/07/21 05:40:59;;;;;;;9.10;6.25;;;20.20;99.90;;;;;;4815418;29;20047;-90
2022/07/21 05:43:26;;;;;;;10.57;6.22;;;20.30;99.90;;;;;;4812335;29;20053;-89
2022/07/21 05:45:52;;;;;;;7.53;5.03;;;20.30;99.90;;;;;;4813891;29;20635;-90
2022/07/21 05:48:18;;;;;;;11.65;7.72;;;20.40;99.90;;;;;;4817296;29;20038;-90
2022/07/21 05:50:44;;;;;;;9.80;6.82;;;20.30;99.90;;;;;;4818417;29;20161;-87
2022/07/21 05:53:09;;;;;;;11.13;7.40;;;20.40;99.90;;;;;;4816244;29;20050;-86
2022/07/21 05:55:36;;;;;;;8.75;5.80;;;20.40;99.90;;;;;;4811610;29;20055;-88
2022/07/21 05:58:02;;;;;;;9.70;5.75;;;20.40;99.90;;;;;;4815483;29;20468;-89
2022/07/21 06:00:28;;;;;;;8.15;5.47;;;20.40;99.90;;;;;;4815972;29;20447;-86
2022/07/21 06:02:54;;;;;;;7.57;5.00;;;20.60;99.90;;;;;;4817767;29;20054;-86
2022/07/21 06:05:19;;;;;;;7.28;5.18;;;20.50;99.90;;;;;;4813839;29;20043;-88
2022/07/21 06:07:45;;;;;;;10.00;7.13;;;20.50;99.90;;;;;;4814994;29;20047;-89
2022/07/21 06:10:12;;;;;;;9.68;7.28;;;20.50;99.90;;;;;;4813964;29;20051;-87
2022/07/21 06:12:37;;;;;;;8.02;5.82;;;20.50;99.90;;;;;;4818336;29;20416;-86
2022/07/21 06:15:04;;;;;;;10.27;7.00;;;20.40;99.90;;;;;;4814553;29;20043;-90
2022/07/21 06:17:31;;;;;;;11.00;6.72;;;20.40;99.90;;;;;;4815061;29;20098;-86
2022/07/21 06:19:58;;;;;;;8.52;6.07;;;20.40;99.90;;;;;;4814386;29;20497;-86
2022/07/21 06:22:24;;;;;;;8.75;5.22;;;20.50;99.90;;;;;;4814063;29;20082;-86
2022/07/21 06:24:54;;;;;;;8.82;6.15;;;20.40;99.90;;;;;;4814378;29;20058;-88
2022/07/21 06:27:31;;;;;;;11.02;6.15;;;20.30;99.90;;;;;;4823865;29;20075;-89
2022/07/21 06:30:14;;;;;;;;;;;;;;;;;;;;;
2022/07/21 06:33:03;;;;;;;9.65;6.38;;;20.30;99.90;;;;;;4816280;29;20045;-88
2022/07/21 06:38:24;;;;;;;7.05;5.40;;;20.40;99.90;;;;;;5093453;23;20066;-88
2022/07/21 07:23:42;;;;;;;7.60;5.38;;;20.30;99.90;;;;;;5164446;23;20448;-90
2022/07/21 07:26:09;;;;;;;8.18;5.68;;;20.40;99.90;;;;;;4851438;23;20062;-87
2022/07/21 07:28:35;;;;;;;9.15;5.10;;;20.50;99.90;;;;;;4811104;29;20050;-86
2022/07/21 07:31:01;;;;;;;7.60;4.72;;;20.50;99.90;;;;;;4817676;29;20047;-86
2022/07/21 07:33:34;;;;;;;6.68;5.63;;;20.60;99.90;;;;;;4812213;29;20050;-86
2022/07/21 07:36:10;;;;;;;8.38;5.80;;;20.70;99.90;;;;;;4808808;29;20138;-88
2022/07/21 07:38:39;;;;;;;9.95;7.30;;;20.40;99.90;;;;;;4813959;29;20445;-88
2022/07/21 07:41:05;;;;;;;13.27;9.07;;;20.60;99.90;;;;;;4810811;29;20449;-89
2022/07/21 07:43:31;;;;;;;12.15;7.95;;;20.60;99.90;;;;;;4819008;29;20125;-88
2022/07/21 08:01:29;;;;;;;;;;;20.60;99.90;;;;;;5252211;23;20061;-89
2022/07/21 08:07:37;;;;;;;11.20;8.50;;;20.70;99.90;;;;;;4782419;29;19932;-86
2022/07/21 08:10:16;;;;;;;9.82;7.15;;;20.60;99.90;;;;;;4773865;29;20448;-87
2022/07/21 08:12:55;;;;;;;9.90;6.72;;;20.40;99.90;;;;;;4776683;29;20063;-88
2022/07/21 08:15:21;;;;;;;8.48;6.07;;;20.60;99.90;;;;;;4773503;29;20035;-88
2022/07/21 08:17:47;;;;;;;10.35;7.85;;;20.60;99.90;;;;;;4772715;29;20551;-87
2022/07/21 08:20:13;;;;;;;8.90;6.80;;;20.60;99.90;;;;;;4771085;30;20055;-88
2022/07/21 08:22:39;;;;;;;9.30;7.05;;;20.60;99.90;;;;;;4785664;29;20463;-86
2022/07/21 08:25:05;;;;;;;9.02;6.90;;;20.50;99.90;;;;;;4784205;29;20567;-86
2022/07/21 08:27:30;;;;;;;8.70;7.03;;;20.50;99.90;;;;;;4785191;29;20047;-87
2022/07/21 08:29:56;;;;;;;8.02;5.82;;;20.50;99.90;;;;;;4787046;29;20112;-88
2022/07/21 08:32:22;;;;;;;8.40;5.97;;;20.50;99.90;;;;;;4785185;29;20528;-88
2022/07/21 08:34:48;;;;;;;6.88;5.60;;;20.50;99.90;;;;;;4769127;29;20047;-87
2022/07/21 08:37:14;;;;;;;9.48;6.03;;;20.50;99.90;;;;;;4773227;29;20501;-85
2022/07/21 08:39:40;;;;;;;9.25;6.57;;;20.50;99.90;;;;;;4773650;30;20051;-87
2022/07/21 08:42:08;;;;;;;7.65;5.63;;;20.60;99.90;;;;;;4785342;29;20400;-88
2022/07/21 08:44:34;;;;;;;6.60;5.47;;;20.70;99.90;;;;;;4813268;29;20066;-88
2022/07/21 08:47:00;;;;;;;7.60;5.90;;;20.70;99.90;;;;;;4806788;29;20109;-88
2022/07/21 08:49:28;;;;;;;9.35;6.35;;;20.70;99.90;;;;;;4821935;29;20090;-84
2022/07/21 08:51:54;;;;;;;11.85;7.50;;;20.70;99.90;;;;;;4824430;29;20058;-86
2022/07/21 08:54:21;;;;;;;8.82;6.15;;;20.80;99.90;;;;;;4830187;29;20057;-86
2022/07/21 08:56:47;;;;;;;7.00;5.60;;;20.80;99.90;;;;;;4822998;29;20087;-86
2022/07/21 08:59:13;;;;;;;9.13;5.75;;;20.90;99.90;;;;;;4827430;29;20539;-86
2022/07/21 09:01:39;;;;;;;7.93;5.72;;;20.90;99.90;;;;;;4828014;29;20058;-88
2022/07/21 09:04:37;;;;;;;8.73;5.72;;;21.00;99.90;;;;;;4829250;29;20418;-87
2022/07/21 09:07:06;;;;;;;9.77;6.15;;;21.10;99.90;;;;;;4801821;29;20059;-86
2022/07/21 09:09:33;;;;;;;10.32;7.30;;;21.10;99.90;;;;;;4802399;29;20055;-85
2022/07/21 09:12:01;;;;;;;9.60;6.05;;;21.10;99.90;;;;;;4802579;29;20095;-90
2022/07/21 09:14:33;;;;;;;9.43;6.30;;;21.20;99.90;;;;;;4802434;29;20046;-86
2022/07/21 09:17:02;;;;;;;8.95;5.70;;;21.20;99.90;;;;;;4786834;29;20074;-87
2022/07/21 09:19:35;;;;;;;8.20;5.88;;;21.30;99.90;;;;;;4789285;29;20062;-88
2022/07/21 09:22:06;;;;;;;9.65;6.18;;;21.30;99.90;;;;;;4788141;29;20062;-87
2022/07/21 09:24:38;;;;;;;8.73;6.03;;;21.40;99.90;;;;;;4805481;29;20051;-87
2022/07/21 09:27:18;;;;;;;10.93;6.45;;;21.40;99.90;;;;;;4804899;29;20047;-85
2022/07/21 09:29:46;;;;;;;12.98;7.80;;;21.50;99.90;;;;;;4805515;29;20063;-88
2022/07/21 09:32:31;;;;;;;10.20;7.40;;;21.50;99.90;;;;;;4804695;29;20224;-87
2022/07/21 09:35:10;;;;;;;11.23;7.75;;;21.60;99.90;;;;;;4804893;29;20452;-89
2022/07/21 09:37:38;;;;;;;12.68;7.97;;;21.60;99.90;;;;;;4783335;29;20579;-90
2022/07/21 09:40:08;;;;;;;9.80;6.88;;;21.70;99.90;;;;;;4804675;29;20458;-87
2022/07/21 09:42:40;;;;;;;10.52;6.30;;;21.70;99.90;;;;;;4819510;29;20074;-86
2022/07/21 09:45:08;;;;;;;7.80;5.72;;;21.80;99.90;;;;;;4831779;29;20054;-85
2022/07/21 09:47:34;;;;;;;10.50;7.40;;;21.90;99.90;;;;;;4825684;29;20090;-88
2022/07/21 09:50:01;;;;;;;11.52;8.27;;;22.00;99.90;;;;;;4824480;29;20050;-84
2022/07/21 09:52:35;;;;;;;11.60;8.02;;;22.10;99.90;;;;;;4838954;29;20050;-84
2022/07/21 09:55:13;;;;;;;13.50;9.57;;;22.10;99.90;;;;;;4846204;29;20046;-87
2022/07/21 09:57:43;;;;;;;9.55;6.78;;;22.20;99.90;;;;;;4855562;29;20046;-85
2022/07/21 10:04:45;;;;;;;11.88;8.77;;;23.10;99.90;;;;;;4818132;29;20150;-81
2022/07/21 10:07:13;;;;;;;11.50;8.88;;;23.60;99.90;;;;;;4839220;29;20069;-84
2022/07/21 10:09:44;;;;;;;11.15;8.52;;;23.70;99.90;;;;;;4824738;29;20050;-82
2022/07/21 10:12:16;;;;;;;16.50;12.20;;;24.00;99.90;;;;;;4840678;29;20051;-87
2022/07/21 10:14:48;;;;;;;11.98;9.15;;;24.00;99.90;;;;;;4840646;29;20071;-82
2022/07/21 10:17:15;;;;;;;12.18;9.15;;;24.10;99.90;;;;;;4852334;29;20054;-84
2022/07/21 10:20:09;;;;;;;12.50;10.27;;;24.40;99.90;;;;;;4844074;29;20041;-83
2022/07/21 10:23:27;;;;;;;14.32;10.40;;;24.70;99.90;;;;;;4861301;29;20148;-82
2022/07/21 10:26:10;;;;;;;13.50;9.75;;;24.80;99.90;;;;;;4792960;29;20618;-90
2022/07/21 10:28:36;;;;;;;15.35;10.88;;;24.90;99.90;;;;;;4801287;29;20066;-85
2022/07/21 10:31:21;;;;;;;15.02;10.95;;;24.80;99.90;;;;;;4774583;30;20066;-86
2022/07/21 10:33:47;;;;;;;14.00;10.73;;;24.80;99.90;;;;;;4788985;29;20632;-90
2022/07/21 10:36:28;;;;;;;14.45;10.93;;;24.80;99.90;;;;;;4759009;29;20055;-88
2022/07/21 10:39:06;;;;;;;13.85;9.55;;;24.90;99.90;;;;;;4792274;29;20058;-88
2022/07/21 10:41:50;;;;;;;14.43;10.73;;;25.00;99.90;;;;;;4790579;29;20069;-90
2022/07/21 10:44:28;;;;;;;19.38;12.27;;;25.00;99.90;;;;;;4790477;29;20067;-84
2022/07/21 10:47:07;;;;;;;16.63;11.95;;;25.20;99.90;;;;;;4790811;29;20055;-89
2022/07/21 10:49:59;;;;;;;16.77;12.57;;;25.20;99.90;;;;;;4773215;30;20067;-87
2022/07/21 10:52:39;;;;;;;14.95;11.93;;;25.20;99.90;;;;;;4776433;30;20528;-91
2022/07/21 10:55:23;;;;;;;15.73;12.68;;;25.20;99.90;;;;;;4824326;29;20086;-92
2022/07/21 10:58:10;;;;;;;16.48;11.88;;;25.30;99.90;;;;;;4824840;29;20189;-91
2022/07/21 11:00:36;;;;;;;13.20;10.82;;;25.60;99.90;;;;;;4808937;29;20127;-90
2022/07/21 11:03:21;;;;;;;17.40;12.60;;;25.70;99.90;;;;;;4820736;29;20089;-94
2022/07/21 11:06:12;;;;;;;16.00;12.38;;;25.90;99.90;;;;;;4844965;29;20528;-91
2022/07/21 11:08:46;;;;;;;13.27;11.15;;;26.20;99.90;;;;;;4844415;29;20110;-93
2022/07/21 11:11:13;;;;;;;13.82;11.15;;;26.50;99.90;;;;;;4844704;29;20058;-90
2022/07/21 11:13:58;;;;;;;10.40;8.80;;;26.60;99.90;;;;;;4843415;29;20110;-87
2022/07/21 11:17:02;;;;;;;11.80;8.73;;;26.60;99.90;;;;;;4843384;29;20054;-89
2022/07/21 11:19:52;;;;;;;11.00;8.68;;;26.50;99.90;;;;;;4824849;29;20062;-86
2022/07/21 11:22:26;;;;;;;10.93;9.18;;;26.50;99.90;;;;;;4824934;29;20062;-93
2022/07/21 11:25:00;;;;;;;10.93;8.30;;;26.60;99.90;;;;;;4825636;29;20049;-92
2022/07/21 11:27:29;;;;;;;9.68;7.40;;;26.60;99.90;;;;;;4826044;29;20050;-92
2022/07/21 11:30:00;;;;;;;10.65;8.43;;;26.90;99.90;;;;;;4826010;29;20065;-90
2022/07/21 11:32:26;;;;;;;14.13;11.52;;;26.90;99.90;;;;;;4828299;29;20137;-88
2022/07/21 11:34:58;;;;;;;9.55;7.22;;;26.90;99.90;;;;;;4823433;29;20046;-92
2022/07/21 11:37:35;;;;;;;8.98;6.82;;;26.80;99.90;;;;;;4824486;29;20081;-86
2022/07/21 11:46:44;;;;;;;9.45;6.95;;;26.80;99.90;;;;;;4821587;29;20046;-93
2022/07/21 11:49:36;;;;;;;8.77;6.93;;;26.30;99.90;;;;;;4741926;30;20128;-90
2022/07/21 11:55:06;;;;;;;7.50;5.20;;;26.80;99.90;;;;;;4840554;23;20058;-90
2022/07/21 11:57:39;;;;;;;7.45;5.00;;;26.60;99.90;;;;;;4826811;24;20059;-87
2022/07/21 12:07:42;;;;;;;8.30;5.53;;;26.30;99.90;;;;;;4805175;29;20416;-89
2022/07/21 12:11:28;;;;;;;6.53;5.60;;;26.20;99.90;;;;;;4823982;23;20058;-90
2022/07/21 12:13:58;;;;;;;6.10;4.63;;;26.30;99.90;;;;;;4750868;30;20136;-85
2022/07/21 12:16:25;;;;;;;6.90;4.80;;;26.20;99.90;;;;;;4740836;30;20431;-84
2022/07/21 12:19:12;;;;;;;7.38;5.32;;;26.30;99.90;;;;;;4756398;30;20053;-85
2022/07/21 12:21:50;;;;;;;6.20;5.03;;;26.40;99.90;;;;;;4756482;30;20115;-85
2022/07/21 12:24:17;;;;;;;5.78;4.57;;;26.20;99.90;;;;;;4757076;30;20048;-82
2022/07/21 12:26:44;;;;;;;7.35;4.30;;;26.00;99.90;;;;;;4744426;30;20478;-83
2022/07/21 12:29:09;;;;;;;5.90;5.03;;;26.00;99.90;;;;;;4759008;30;20060;-84
2022/07/21 12:31:36;;;;;;;5.35;3.88;;;26.20;99.90;;;;;;4741663;30;20064;-85
2022/07/21 12:34:14;;;;;;;5.10;3.38;;;26.30;99.90;;;;;;4742284;30;20091;-85
2022/07/21 12:36:41;;;;;;;4.00;3.45;;;26.50;99.90;;;;;;4742779;30;20108;-85
2022/07/21 12:42:05;;;;;;;3.40;2.72;;;27.00;99.90;;;;;;4756015;30;20586;-85
2022/07/21 12:44:32;;;;;;;3.45;3.00;;;27.00;99.90;;;;;;4770162;29;20556;-85
2022/07/21 12:47:12;;;;;;;5.03;3.40;;;27.00;99.90;;;;;;4811991;29;20042;-85
2022/07/21 12:50:14;;;;;;;5.82;4.63;;;27.10;99.90;;;;;;4810905;29;20065;-86
2022/07/21 12:52:41;;;;;;;4.25;3.08;;;27.20;99.90;;;;;;4776758;29;20047;-85
2022/07/21 12:55:07;;;;;;;6.28;4.40;;;27.00;99.90;;;;;;4777085;30;20080;-86
2022/07/21 12:57:37;;;;;;;4.85;4.25;;;27.10;99.90;;;;;;4772328;30;20490;-88
2022/07/21 13:00:11;;;;;;;6.47;4.40;;;26.80;99.90;;;;;;4773923;30;20167;-87
2022/07/21 13:03:08;;;;;;;;;;;;;;;;;;;;;
2022/07/21 13:27:50;;;;;;;3.30;1.90;;;25.90;99.90;;;;;;5366278;24;20050;-91
2022/07/21 13:30:16;;;;;;;3.65;2.05;;;25.70;99.90;;;;;;4833930;29;20481;-89
2022/07/21 13:32:42;;;;;;;4.88;2.83;;;25.70;99.90;;;;;;4819531;29;20057;-91
2022/07/21 13:35:08;;;;;;;3.72;2.03;;;25.70;99.90;;;;;;4842158;29;20054;-89
2022/07/21 13:37:34;;;;;;;2.67;1.70;;;26.30;99.90;;;;;;4829395;29;20059;-87
2022/07/21 13:40:00;;;;;;;2.60;1.52;;;26.40;99.90;;;;;;4834485;29;20047;-87
2022/07/21 13:42:26;;;;;;;3.65;1.50;;;26.10;99.90;;;;;;4816195;29;20090;-85
2022/07/21 13:44:52;;;;;;;2.20;1.13;;;25.90;99.90;;;;;;4819484;29;20115;-91
2022/07/21 13:47:17;;;;;;;3.83;1.30;;;25.70;99.90;;;;;;4828014;29;20046;-89
2022/07/21 13:49:44;;;;;;;3.47;1.75;;;25.70;99.90;;;;;;4845199;29;20056;-86
2022/07/21 13:52:11;;;;;;;1.95;1.13;;;25.80;99.90;;;;;;4836908;29;20070;-91
2022/07/21 13:54:37;;;;;;;2.05;1.05;;;25.80;99.90;;;;;;4824986;29;20492;-88
2022/07/21 13:57:02;;;;;;;2.75;1.30;;;25.70;99.90;;;;;;4825220;29;20053;-92
2022/07/21 13:59:28;;;;;;;2.80;1.23;;;25.80;99.90;;;;;;4820886;29;20051;-91
2022/07/21 14:01:56;;;;;;;4.35;1.40;;;25.80;99.90;;;;;;4812621;29;20082;-89
2022/07/21 14:04:25;;;;;;;4.38;1.35;;;25.90;99.90;;;;;;4823439;29;20054;-93
2022/07/21 14:06:52;;;;;;;1.40;0.88;;;25.90;99.90;;;;;;4838759;29;20454;-94
2022/07/21 14:09:18;;;;;;;1.85;1.10;;;25.80;99.90;;;;;;4823336;29;20045;-92
2022/07/21 14:11:45;;;;;;;2.40;1.10;;;25.90;99.90;;;;;;4817818;29;20181;-93
2022/07/21 14:14:16;;;;;;;1.38;0.95;;;26.20;99.90;;;;;;4821057;29;20046;-92
2022/07/21 14:16:45;;;;;;;2.13;0.90;;;26.40;99.90;;;;;;4824211;29;20053;-91
2022/07/21 14:19:14;;;;;;;1.65;1.35;;;26.70;99.90;;;;;;4826235;29;20508;-87
2022/07/21 14:21:39;;;;;;;2.55;1.20;;;26.90;99.90;;;;;;4817951;29;20053;-94
2022/07/21 14:27:06;;;;;;;;;;;;;;;;;;;;;
2022/07/21 14:29:32;;;;;;;1.83;1.00;;;27.00;99.90;;;;;;4812017;29;20069;-92
2022/07/21 14:31:58;;;;;;;1.90;0.93;;;26.60;99.90;;;;;;4818485;29;20504;-93
2022/07/21 14:34:24;;;;;;;2.75;1.10;;;26.50;99.90;;;;;;4827925;29;20096;-93
2022/07/21 14:36:51;;;;;;;13.20;1.20;;;26.40;99.90;;;;;;4825656;29;20449;-89
2022/07/21 14:39:18;;;;;;;2.38;1.10;;;26.30;99.90;;;;;;4808904;29;20488;-87
2022/07/21 14:41:44;;;;;;;1.83;0.80;;;26.20;99.90;;;;;;4815993;29;20050;-91
2022/07/21 14:44:11;;;;;;;3.00;1.10;;;26.10;99.90;;;;;;4815406;29;20061;-89
2022/07/21 14:46:37;;;;;;;1.50;0.90;;;25.70;99.90;;;;;;4823078;29;20484;-89
2022/07/21 14:49:03;;;;;;;2.97;1.05;;;25.30;99.90;;;;;;4815480;29;20061;-87
2022/07/21 14:51:29;;;;;;;1.70;1.00;;;25.20;99.90;;;;;;4823999;29;20114;-89
2022/07/21 14:53:55;;;;;;;1.45;0.80;;;25.00;99.90;;;;;;4822948;29;20054;-90
2022/07/21 14:56:20;;;;;;;3.15;1.10;;;24.90;99.90;;;;;;4823468;29;20571;-90
2022/07/21 14:58:46;;;;;;;1.30;0.88;;;25.20;99.90;;;;;;4826431;29;20038;-90
2022/07/21 15:01:12;;;;;;;2.42;1.08;;;24.80;99.90;;;;;;4825551;29;20075;-90